Time;durP1;ratioP1;P1;durP2;ratioP2;P2;SDS_P1;SDS_P2;PMS_P1;PMS_P2;Temp;Humidity;BMP_temperature;BMP_pressure;BME280_temperature;BME280_humidity;BME280_pressure;Samples;Min_cycle;Max_cycle;Signal;HPM_P1;HPM_P2
2022/06/26 00:02:10;;;;;;;;;;;23.50;74.00;;;;;;5019433;28;19976;-96
2022/06/26 00:04:44;;;;;;;;;;;23.50;74.20;;;;;;5019665;28;19988;-96
2022/06/26 00:07:11;;;;;;;;;;;23.60;74.40;;;;;;5018917;28;19945;-96
2022/06/26 00:09:43;;;;;;;;;;;23.60;74.50;;;;;;5018615;28;19947;-95
2022/06/26 00:12:11;;;;;;;;;;;23.60;74.80;;;;;;5018804;28;19969;-96
2022/06/26 00:14:40;;;;;;;;;;;23.60;75.20;;;;;;5018232;28;19950;-96
2022/06/26 00:17:06;;;;;;;;;;;23.60;75.70;;;;;;5015644;28;19939;-96
2022/06/26 00:19:33;;;;;;;;;;;23.70;76.00;;;;;;5012640;28;19953;-96
2022/06/26 00:21:59;;;;;;;;;;;23.70;76.30;;;;;;5011526;28;19958;-96
2022/06/26 00:24:25;;;;;;;;;;;23.70;76.50;;;;;;5012903;28;19944;-96
2022/06/26 00:26:51;;;;;;;;;;;23.70;76.60;;;;;;5013239;28;20013;-96
2022/06/26 00:29:17;;;;;;;;;;;23.70;76.90;;;;;;5015865;28;19963;-96
2022/06/26 00:31:43;;;;;;;;;;;23.70;77.00;;;;;;5017691;28;19930;-96
2022/06/26 00:34:10;;;;;;;;;;;23.60;77.40;;;;;;5016890;28;19969;-96
2022/06/26 00:36:37;;;;;;;;;;;23.50;77.90;;;;;;5017042;28;19944;-96
2022/06/26 00:39:04;;;;;;;;;;;23.50;78.50;;;;;;5016532;28;19954;-96
2022/06/26 00:41:30;;;;;;;;;;;23.40;78.80;;;;;;5016085;28;19954;-96
2022/06/26 00:44:00;;;;;;;;;;;23.40;79.10;;;;;;5016584;28;19950;-96
2022/06/26 00:46:28;;;;;;;;;;;23.30;79.40;;;;;;5017571;28;19941;-96
2022/06/26 00:48:55;;;;;;;;;;;23.30;79.80;;;;;;5017464;28;19948;-96
2022/06/26 00:51:27;;;;;;;;;;;23.30;80.50;;;;;;5016488;28;19968;-96
2022/06/26 00:53:53;;;;;;;;;;;23.20;81.10;;;;;;5016149;28;19973;-96
2022/06/26 00:56:21;;;;;;;;;;;23.20;81.70;;;;;;5016410;28;19950;-96
2022/06/26 00:58:49;;;;;;;;;;;23.20;82.00;;;;;;5016626;28;19954;-96
2022/06/26 01:01:17;;;;;;;;;;;23.20;82.20;;;;;;5016466;28;19947;-96
2022/06/26 01:03:49;;;;;;;;;;;23.20;82.30;;;;;;5015876;28;20418;-96
2022/06/26 01:06:17;;;;;;;;;;;23.20;82.40;;;;;;5016312;28;19948;-96
2022/06/26 01:08:43;;;;;;;;;;;23.20;82.50;;;;;;5015980;28;19930;-96
2022/06/26 01:11:18;;;;;;;;;;;23.20;82.50;;;;;;5016997;28;19954;-96
2022/06/26 01:13:45;;;;;;;;;;;23.10;82.50;;;;;;5015950;28;19974;-96
2022/06/26 01:16:12;;;;;;;;;;;23.20;83.20;;;;;;5014457;28;19944;-96
2022/06/26 01:18:38;;;;;;;;;;;23.20;83.60;;;;;;5015173;28;20009;-95
2022/06/26 01:21:05;;;;;;;;;;;23.20;83.60;;;;;;5014151;28;19951;-96
2022/06/26 01:23:30;;;;;;;;;;;23.20;83.70;;;;;;5014964;28;19941;-96
2022/06/26 01:25:57;;;;;;;;;;;23.20;83.70;;;;;;5014713;28;20052;-96
2022/06/26 01:28:23;;;;;;;;;;;23.10;83.80;;;;;;5014644;28;19946;-96
2022/06/26 01:30:50;;;;;;;;;;;23.10;83.70;;;;;;5013835;28;20004;-96
2022/06/26 01:33:15;;;;;;;;;;;23.10;83.60;;;;;;5010984;28;19970;-96
2022/06/26 01:35:41;;;;;;;;;;;23.10;83.40;;;;;;5009520;28;20329;-96
2022/06/26 01:38:11;;;;;;;;;;;23.00;82.40;;;;;;5009320;28;20015;-96
2022/06/26 01:40:37;;;;;;;;;;;22.80;82.50;;;;;;5009132;28;19941;-96
2022/06/26 01:43:03;;;;;;;;;;;22.60;82.90;;;;;;5013905;28;19942;-96
2022/06/26 01:45:30;;;;;;;;;;;22.30;83.80;;;;;;5015814;28;19950;-96
2022/06/26 01:47:57;;;;;;;;;;;22.30;84.20;;;;;;5015992;28;19959;-96
2022/06/26 01:50:23;;;;;;;;;;;22.20;84.20;;;;;;5016065;28;19953;-96
2022/06/26 01:52:51;;;;;;;;;;;22.10;84.50;;;;;;5016304;28;19966;-96
2022/06/26 01:55:18;;;;;;;;;;;22.10;84.70;;;;;;5017562;28;19936;-96
2022/06/26 01:57:51;;;;;;;;;;;22.00;84.90;;;;;;5017258;28;19954;-96
2022/06/26 02:00:22;;;;;;;;;;;21.90;85.10;;;;;;5016922;28;19948;-96
2022/06/26 02:02:49;;;;;;;;;;;21.90;85.20;;;;;;5017367;28;19947;-96
2022/06/26 02:05:15;;;;;;;;;;;21.80;85.50;;;;;;5017140;28;19968;-96
2022/06/26 02:07:42;;;;;;;;;;;21.80;85.60;;;;;;5016544;28;19946;-96
2022/06/26 02:15:43;;;;;;;;;;;21.70;85.70;;;;;;5017805;28;20015;-96
2022/06/26 02:18:16;;;;;;;;;;;21.60;85.90;;;;;;5012519;28;19976;-96
2022/06/26 02:20:51;;;;;;;;;;;21.80;86.00;;;;;;5017788;28;19948;-96
2022/06/26 02:23:18;;;;;;;;;;;21.80;86.30;;;;;;5017843;28;20002;-96
2022/06/26 02:25:45;;;;;;;;;;;21.80;86.10;;;;;;5017315;28;19990;-96
2022/06/26 02:28:23;;;;;;;;;;;21.80;85.70;;;;;;5017923;28;19937;-96
2022/06/26 02:31:03;;;;;;;;;;;21.80;85.40;;;;;;5012500;28;19959;-96
2022/06/26 02:33:32;;;;;;;;;;;21.80;85.10;;;;;;5017101;28;19956;-96
2022/06/26 02:36:00;;;;;;;;;;;21.80;85.00;;;;;;5016775;28;19991;-96
2022/06/26 02:38:28;;;;;;;;;;;21.70;84.70;;;;;;5016588;28;19960;-96
2022/06/26 02:40:55;;;;;;;;;;;21.70;84.50;;;;;;5016917;28;19955;-96
2022/06/26 02:43:25;;;;;;;;;;;21.70;84.40;;;;;;5016770;28;19934;-96
2022/06/26 02:46:00;;;;;;;;;;;21.70;84.70;;;;;;5015097;28;19944;-96
2022/06/26 02:48:26;;;;;;;;;;;21.60;84.30;;;;;;5009679;28;19951;-96
2022/06/26 02:50:52;;;;;;;;;;;21.50;84.70;;;;;;5009895;28;20015;-96
2022/06/26 02:53:18;;;;;;;;;;;21.40;85.10;;;;;;5010321;28;20014;-96
2022/06/26 02:55:50;;;;;;;;;;;21.30;85.60;;;;;;5010451;28;19950;-96
2022/06/26 02:58:17;;;;;;;;;;;21.20;85.70;;;;;;5014294;28;19946;-96
2022/06/26 03:00:44;;;;;;;;;;;21.10;85.90;;;;;;5015043;28;19959;-96
2022/06/26 03:03:11;;;;;;;;;;;21.00;86.00;;;;;;5015358;28;20340;-96
2022/06/26 03:05:41;;;;;;;;;;;20.90;86.50;;;;;;5016437;28;19953;-96
2022/06/26 03:08:08;;;;;;;;;;;20.90;86.90;;;;;;5016237;28;19951;-96
2022/06/26 03:10:36;;;;;;;;;;;20.90;87.70;;;;;;5016698;28;19978;-96
2022/06/26 03:13:03;;;;;;;;;;;21.00;87.80;;;;;;5015514;28;19978;-96
2022/06/26 03:15:30;;;;;;;;;;;21.00;88.00;;;;;;5014996;28;19953;-96
2022/06/26 03:17:59;;;;;;;;;;;21.20;88.00;;;;;;4999802;28;19954;-96
2022/06/26 03:20:27;;;;;;;;;;;21.20;87.80;;;;;;5015969;28;19948;-96
2022/06/26 03:22:55;;;;;;;;;;;21.20;87.80;;;;;;5020962;28;19934;-96
2022/06/26 03:25:24;;;;;;;;;;;21.30;87.70;;;;;;5020383;28;19956;-96
2022/06/26 03:27:55;;;;;;;;;;;21.30;87.40;;;;;;5020053;28;19981;-96
2022/06/26 03:30:22;;;;;;;;;;;21.30;87.30;;;;;;5021281;28;19947;-96
2022/06/26 03:32:52;;;;;;;;;;;21.30;87.50;;;;;;5020305;28;19988;-96
2022/06/26 03:35:22;;;;;;;;;;;21.30;87.20;;;;;;5021236;28;19974;-96
2022/06/26 03:37:50;;;;;;;;;;;21.30;86.50;;;;;;5020806;28;19945;-96
2022/06/26 03:40:29;;;;;;;;;;;21.30;86.40;;;;;;5021464;28;19947;-96
2022/06/26 03:43:11;;;;;;;;;;;21.20;86.30;;;;;;5022319;28;19950;-96
2022/06/26 03:45:52;;;;;;;;;;;21.10;86.10;;;;;;5021021;28;19960;-96
2022/06/26 03:48:24;;;;;;;;;;;21.20;86.10;;;;;;5015013;28;19966;-96
2022/06/26 03:51:33;;;;;;;;;;;21.20;86.00;;;;;;5021831;28;19944;-96
2022/06/26 03:54:06;;;;;;;;;;;21.20;85.80;;;;;;5021863;28;19954;-96
2022/06/26 03:56:41;;;;;;;;;;;21.30;86.10;;;;;;5021802;28;19964;-96
2022/06/26 03:59:09;;;;;;;;;;;21.30;86.10;;;;;;5020630;28;19960;-96
2022/06/26 04:01:36;;;;;;;;;;;21.40;86.20;;;;;;5020073;28;19956;-96
2022/06/26 04:04:02;;;;;;;;;;;21.40;85.70;;;;;;5011663;28;20399;-96
2022/06/26 04:06:28;;;;;;;;;;;21.30;86.70;;;;;;5008565;28;20097;-96
2022/06/26 04:08:53;;;;;;;;;;;21.20;86.40;;;;;;5010126;28;19946;-96
2022/06/26 04:11:19;;;;;;;;;;;21.20;86.70;;;;;;5009680;28;19968;-96
2022/06/26 04:13:45;;;;;;;;;;;21.30;86.90;;;;;;5010784;28;19953;-96
2022/06/26 04:16:11;;;;;;;;;;;21.30;87.20;;;;;;5016899;28;20010;-96
2022/06/26 04:18:39;;;;;;;;;;;21.40;87.50;;;;;;5017645;28;19949;-96
2022/06/26 04:21:06;;;;;;;;;;;21.60;87.60;;;;;;5018482;28;19951;-96
2022/06/26 04:23:33;;;;;;;;;;;21.70;87.80;;;;;;5018658;28;19948;-96
2022/06/26 04:25:59;;;;;;;;;;;21.80;87.60;;;;;;5018600;28;19943;-96
2022/06/26 04:28:26;;;;;;;;;;;22.00;87.40;;;;;;5018319;28;19930;-96
2022/06/26 04:30:53;;;;;;;;;;;22.10;87.10;;;;;;5016868;28;19936;-96
2022/06/26 04:33:19;;;;;;;;;;;22.20;86.90;;;;;;5018292;28;19964;-96
2022/06/26 04:35:47;;;;;;;;;;;22.30;86.80;;;;;;5018680;28;19930;-96
2022/06/26 04:38:22;;;;;;;;;;;22.30;86.50;;;;;;5018592;28;19940;-96
2022/06/26 04:40:49;;;;;;;;;;;22.40;86.40;;;;;;5019326;28;19930;-96
2022/06/26 04:43:14;;;;;;;;;;;22.50;86.10;;;;;;5017206;28;19954;-96
2022/06/26 04:45:40;;;;;;;;;;;22.70;85.90;;;;;;5012834;28;19942;-96
2022/06/26 04:48:06;;;;;;;;;;;22.80;85.60;;;;;;5013397;28;19938;-96
2022/06/26 04:50:32;;;;;;;;;;;22.80;85.20;;;;;;5014943;28;19938;-96
2022/06/26 04:52:58;;;;;;;;;;;23.00;85.10;;;;;;5012540;28;19972;-96
2022/06/26 04:55:24;;;;;;;;;;;23.10;84.60;;;;;;5013455;28;19947;-96
2022/06/26 04:57:50;;;;;;;;;;;23.20;84.20;;;;;;5009242;28;19937;-96
2022/06/26 05:00:16;;;;;;;;;;;23.30;83.70;;;;;;5001509;28;20589;-96
2022/06/26 05:02:42;;;;;;;;;;;23.40;82.80;;;;;;4998837;28;19942;-96
2022/06/26 05:05:07;;;;;;;;;;;23.50;82.10;;;;;;4999212;28;20391;-96
2022/06/26 05:07:33;;;;;;;;;;;23.60;81.90;;;;;;4998362;28;20397;-96
2022/06/26 05:09:59;;;;;;;;;;;23.70;81.40;;;;;;4998327;28;20320;-96
2022/06/26 05:12:25;;;;;;;;;;;23.80;81.00;;;;;;5001800;28;20133;-96
2022/06/26 05:14:50;;;;;;;;;;;23.90;80.60;;;;;;5002285;28;20087;-96
2022/06/26 05:17:16;;;;;;;;;;;24.10;80.40;;;;;;5003372;28;20428;-96
2022/06/26 05:19:42;;;;;;;;;;;24.20;79.90;;;;;;5004427;28;19944;-96
2022/06/26 05:22:07;;;;;;;;;;;24.20;79.60;;;;;;5005115;28;19982;-96
2022/06/26 05:24:33;;;;;;;;;;;24.30;79.50;;;;;;5007566;28;19960;-96
2022/06/26 05:26:59;;;;;;;;;;;24.30;79.30;;;;;;5006871;28;19965;-96
2022/06/26 05:29:25;;;;;;;;;;;24.30;79.30;;;;;;5007372;28;19942;-95
2022/06/26 05:31:51;;;;;;;;;;;24.30;79.30;;;;;;5007060;28;19948;-96
2022/06/26 05:34:17;;;;;;;;;;;24.30;79.60;;;;;;5008123;28;19990;-96
2022/06/26 05:36:43;;;;;;;;;;;24.40;79.30;;;;;;5008679;28;19949;-96
2022/06/26 05:39:08;;;;;;;;;;;24.40;79.30;;;;;;5010176;28;20380;-96
2022/06/26 05:41:34;;;;;;;;;;;24.50;79.30;;;;;;5009375;28;20010;-96
2022/06/26 05:44:00;;;;;;;;;;;24.50;79.20;;;;;;5008120;28;19973;-96
2022/06/26 05:46:26;;;;;;;;;;;24.50;79.20;;;;;;5006257;28;20366;-96
2022/06/26 05:48:52;;;;;;;;;;;24.60;79.00;;;;;;5007209;28;19967;-96
2022/06/26 05:51:18;;;;;;;;;;;24.60;78.90;;;;;;5006847;28;20011;-96
2022/06/26 05:53:43;;;;;;;;;;;24.70;78.70;;;;;;5003762;28;19964;-96
2022/06/26 05:56:09;;;;;;;;;;;24.70;78.50;;;;;;5002438;28;19962;-96
2022/06/26 05:58:34;;;;;;;;;;;24.80;78.00;;;;;;5001396;28;20308;-96
2022/06/26 06:01:00;;;;;;;;;;;24.80;77.90;;;;;;5001211;28;20315;-96
2022/06/26 06:03:26;;;;;;;;;;;24.80;77.70;;;;;;5002267;28;19947;-96
2022/06/26 06:05:51;;;;;;;;;;;24.90;77.50;;;;;;5005195;28;19948;-96
2022/06/26 06:08:17;;;;;;;;;;;25.00;77.10;;;;;;5009409;28;19946;-96
2022/06/26 06:10:43;;;;;;;;;;;25.00;76.90;;;;;;5009330;28;19943;-96
2022/06/26 06:13:09;;;;;;;;;;;25.10;76.90;;;;;;5033321;22;19982;-96
2022/06/26 06:15:34;;;;;;;;;;;25.10;76.70;;;;;;5029007;28;19963;-96
2022/06/26 06:18:00;;;;;;;;;;;25.20;76.70;;;;;;5028418;28;20417;-96
2022/06/26 06:20:26;;;;;;;;;;;25.20;76.50;;;;;;5026780;28;19949;-96
2022/06/26 06:22:54;;;;;;;;;;;25.20;76.30;;;;;;5027944;28;19991;-95
2022/06/26 06:25:20;;;;;;;;;;;25.20;76.20;;;;;;5025906;28;19962;-96
2022/06/26 06:27:47;;;;;;;;;;;25.30;76.10;;;;;;5027470;28;19963;-96
2022/06/26 06:30:13;;;;;;;;;;;25.30;76.20;;;;;;5029395;28;19946;-96
2022/06/26 06:32:40;;;;;;;;;;;25.30;76.10;;;;;;5033438;28;19969;-96
2022/06/26 06:35:08;;;;;;;;;;;25.30;76.00;;;;;;5035138;28;19956;-96
2022/06/26 06:37:35;;;;;;;;;;;25.30;76.00;;;;;;5035693;28;19944;-96
2022/06/26 06:40:03;;;;;;;;;;;25.30;76.20;;;;;;5034938;28;19941;-96
2022/06/26 06:42:30;;;;;;;;;;;25.40;75.60;;;;;;5035921;28;19949;-96
2022/06/26 06:45:05;;;;;;;;;;;25.40;75.70;;;;;;5037116;28;19946;-96
2022/06/26 06:47:37;;;;;;;;;;;25.50;75.80;;;;;;5036197;28;19971;-96
2022/06/26 06:50:05;;;;;;;;;;;25.60;75.20;;;;;;5020228;28;19954;-96
2022/06/26 06:52:32;;;;;;;;;;;25.60;75.30;;;;;;5034061;28;19989;-96
2022/06/26 06:55:00;;;;;;;;;;;25.70;75.20;;;;;;5038058;28;19931;-96
2022/06/26 06:57:28;;;;;;;;;;;25.80;75.10;;;;;;5039135;28;20009;-96
2022/06/26 06:59:55;;;;;;;;;;;26.00;74.70;;;;;;5023533;28;19949;-96
2022/06/26 07:02:26;;;;;;;;;;;26.00;73.80;;;;;;5039645;28;19936;-96
2022/06/26 07:04:58;;;;;;;;;;;26.10;73.20;;;;;;5041878;28;19935;-96
2022/06/26 07:07:27;;;;;;;;;;;26.20;73.30;;;;;;5041980;28;19986;-96
2022/06/26 07:10:04;;;;;;;;;;;26.20;72.80;;;;;;5037913;28;19950;-96
2022/06/26 07:13:12;;;;;;;;;;;26.20;72.80;;;;;;5039937;28;19986;-96
2022/06/26 07:36:34;;;;;;;;;;;26.50;72.30;;;;;;5021482;28;20014;-96
2022/06/26 07:39:04;;;;;;;;;;;26.50;72.40;;;;;;5021016;28;19929;-96
2022/06/26 07:41:33;;;;;;;;;;;26.60;70.90;;;;;;5019241;28;19984;-96
2022/06/26 07:44:01;;;;;;;;;;;26.70;71.00;;;;;;5020499;28;19958;-96
2022/06/26 07:46:31;;;;;;;;;;;26.70;71.20;;;;;;5019699;28;19956;-96
2022/06/26 07:49:01;;;;;;;;;;;26.80;71.30;;;;;;5021429;28;19946;-96
2022/06/26 07:51:28;;;;;;;;;;;26.80;70.40;;;;;;5019691;28;19963;-96
2022/06/26 07:53:54;;;;;;;;;;;26.80;70.10;;;;;;5018014;28;20034;-96
2022/06/26 07:56:25;;;;;;;;;;;26.90;69.90;;;;;;5018747;28;19976;-96
2022/06/26 07:58:55;;;;;;;;;;;27.00;69.60;;;;;;5018108;28;19961;-96
2022/06/26 08:01:23;;;;;;;;;;;27.10;69.30;;;;;;5018236;28;19923;-96
2022/06/26 08:03:52;;;;;;;;;;;27.20;68.80;;;;;;5020690;28;19953;-96
2022/06/26 08:06:32;;;;;;;;;;;27.20;68.80;;;;;;5019020;28;19957;-96
2022/06/26 08:09:10;;;;;;;;;;;27.30;69.10;;;;;;5021070;28;19935;-96
2022/06/26 08:11:47;;;;;;;;;;;27.40;69.10;;;;;;5020969;28;19932;-97
2022/06/26 08:14:36;;;;;;;;;;;27.50;68.50;;;;;;5020801;28;19940;-96
2022/06/26 08:17:13;;;;;;;;;;;27.50;68.20;;;;;;5011445;28;19926;-96
2022/06/26 08:19:40;;;;;;;;;;;27.70;67.90;;;;;;5019059;28;19933;-96
2022/06/26 08:22:07;;;;;;;;;;;27.70;66.60;;;;;;5019029;28;19948;-96
2022/06/26 08:24:40;;;;;;;;;;;27.80;67.00;;;;;;5018445;28;19936;-96
2022/06/26 08:27:10;;;;;;;;;;;27.80;65.60;;;;;;5018393;28;19984;-96
2022/06/26 08:29:38;;;;;;;;;;;27.90;65.40;;;;;;5017214;28;19948;-96
2022/06/26 08:32:06;;;;;;;;;;;28.00;65.40;;;;;;5017300;28;19989;-96
2022/06/26 08:34:33;;;;;;;;;;;28.20;65.70;;;;;;5015209;28;19985;-96
2022/06/26 08:36:59;;;;;;;;;;;28.20;64.20;;;;;;5013561;28;19956;-96
2022/06/26 08:39:25;;;;;;;;;;;28.20;63.80;;;;;;5015240;28;19969;-96
2022/06/26 08:41:54;;;;;;;;;;;28.20;63.60;;;;;;5015910;28;19949;-96
2022/06/26 08:44:23;;;;;;;;;;;28.20;62.90;;;;;;5015845;28;19949;-96
2022/06/26 08:46:49;;;;;;;;;;;28.20;63.20;;;;;;5013672;28;19958;-96
2022/06/26 08:49:16;;;;;;;;;;;28.20;64.90;;;;;;5012090;28;19950;-96
2022/06/26 08:51:43;;;;;;;;;;;28.20;64.00;;;;;;5011854;28;19941;-96
2022/06/26 08:54:09;;;;;;;;;;;28.30;64.20;;;;;;5012018;28;20028;-96
2022/06/26 08:56:38;;;;;;;;;;;28.40;63.60;;;;;;5013625;28;19945;-96
2022/06/26 08:59:04;;;;;;;;;;;28.60;64.50;;;;;;5010942;28;19989;-96
2022/06/26 09:01:33;;;;;;;;;;;28.60;63.20;;;;;;5015938;28;19957;-96
2022/06/26 09:04:00;;;;;;;;;;;28.70;64.00;;;;;;5017280;28;19976;-96
2022/06/26 09:06:28;;;;;;;;;;;28.70;63.10;;;;;;5016541;28;19931;-96
2022/06/26 09:08:55;;;;;;;;;;;28.80;63.40;;;;;;5015285;28;19951;-96
2022/06/26 09:11:21;;;;;;;;;;;28.90;62.50;;;;;;5016039;28;19939;-96
2022/06/26 09:13:49;;;;;;;;;;;28.90;62.10;;;;;;5015743;28;19951;-96
2022/06/26 09:16:15;;;;;;;;;;;28.90;63.80;;;;;;5015245;28;19941;-96
2022/06/26 09:18:42;;;;;;;;;;;28.90;64.10;;;;;;5014251;28;19957;-96
2022/06/26 09:21:09;;;;;;;;;;;28.90;61.60;;;;;;5014284;28;19991;-96
2022/06/26 09:23:37;;;;;;;;;;;28.80;62.50;;;;;;5014648;28;19954;-96
2022/06/26 09:26:06;;;;;;;;;;;28.70;62.20;;;;;;5013809;28;19966;-96
2022/06/26 09:28:32;;;;;;;;;;;28.70;62.70;;;;;;5014011;28;19972;-96
2022/06/26 09:31:02;;;;;;;;;;;28.60;62.30;;;;;;5013516;28;19940;-96
2022/06/26 09:33:30;;;;;;;;;;;28.70;62.60;;;;;;5015317;28;19960;-96
2022/06/26 09:35:57;;;;;;;;;;;28.70;62.00;;;;;;5015715;28;19992;-96
2022/06/26 09:38:27;;;;;;;;;;;28.90;61.80;;;;;;5014643;28;19951;-96
2022/06/26 09:40:57;;;;;;;;;;;29.00;58.90;;;;;;5015978;28;19943;-96
2022/06/26 09:43:26;;;;;;;;;;;29.10;58.80;;;;;;5012628;28;19945;-96
2022/06/26 09:45:53;;;;;;;;;;;29.30;58.70;;;;;;5011818;28;20422;-96
2022/06/26 09:48:20;;;;;;;;;;;29.50;59.10;;;;;;5009628;28;19941;-96
2022/06/26 09:50:46;;;;;;;;;;;29.60;58.30;;;;;;5008465;28;19941;-96
2022/06/26 09:53:14;;;;;;;;;;;29.70;57.20;;;;;;5008599;28;19976;-96
2022/06/26 09:55:40;;;;;;;;;;;29.80;55.00;;;;;;5009007;28;19962;-96
2022/06/26 09:58:08;;;;;;;;;;;29.90;57.80;;;;;;5013429;28;19933;-96
2022/06/26 10:00:35;;;;;;;;;;;30.00;59.00;;;;;;5012957;28;20486;-96
2022/06/26 10:08:41;;;;;;;;;;;30.30;58.20;;;;;;5013346;28;20317;-96
2022/06/26 10:11:08;;;;;;;;;;;30.40;56.00;;;;;;5013373;28;19946;-96
2022/06/26 10:13:38;;;;;;;;;;;30.50;54.90;;;;;;5013411;28;20030;-96
2022/06/26 10:16:07;;;;;;;;;;;30.60;55.90;;;;;;5012657;28;19965;-96
2022/06/26 10:18:36;;;;;;;;;;;30.80;57.20;;;;;;5012496;28;19970;-96
2022/06/26 10:21:12;;;;;;;;;;;30.90;52.30;;;;;;5012530;28;19946;-96
2022/06/26 10:23:38;;;;;;;;;;;30.90;50.00;;;;;;5012403;28;19949;-96
2022/06/26 10:26:14;;;;;;;;;;;30.90;50.80;;;;;;5012929;28;20453;-96
2022/06/26 10:29:00;;;;;;;;;;;30.90;52.50;;;;;;5012352;28;19971;-96
2022/06/26 10:31:30;;;;;;;;;;;30.90;50.10;;;;;;5012170;28;19940;-96
2022/06/26 10:33:56;;;;;;;;;;;31.00;50.60;;;;;;5012350;28;19973;-96
2022/06/26 10:36:24;;;;;;;;;;;31.00;50.50;;;;;;5012298;28;20072;-96
2022/06/26 10:38:52;;;;;;;;;;;31.10;48.70;;;;;;5013769;28;19953;-96
2022/06/26 10:44:04;;;;;;;;;;;31.20;48.90;;;;;;5014319;28;19963;-96
2022/06/26 10:46:41;;;;;;;;;;;31.30;49.80;;;;;;5014720;28;19949;-96
2022/06/26 10:49:10;;;;;;;;;;;31.40;47.80;;;;;;5014694;28;19947;-96
2022/06/26 10:51:40;;;;;;;;;;;31.50;48.10;;;;;;5012882;28;19944;-96
2022/06/26 10:54:29;;;;;;;;;;;31.60;48.30;;;;;;5013163;28;19967;-96
2022/06/26 10:57:12;;;;;;;;;;;31.70;49.00;;;;;;5010148;28;19938;-96
2022/06/26 10:59:39;;;;;;;;;;;31.70;48.30;;;;;;5012217;28;19953;-96
2022/06/26 11:02:05;;;;;;;;;;;31.70;48.40;;;;;;5011189;28;20004;-96
2022/06/26 11:04:31;;;;;;;;;;;31.60;48.20;;;;;;5012029;28;19941;-96
2022/06/26 11:06:59;;;;;;;;;;;31.50;47.60;;;;;;5012692;28;19968;-96
2022/06/26 11:09:30;;;;;;;;;;;31.50;48.30;;;;;;5015471;28;19938;-96
2022/06/26 11:12:03;;;;;;;;;;;31.40;48.70;;;;;;5017010;28;19941;-96
2022/06/26 11:14:31;;;;;;;;;;;31.40;46.80;;;;;;5016168;28;19944;-96
2022/06/26 11:16:57;;;;;;;;;;;31.50;45.00;;;;;;5015963;28;19934;-96
2022/06/26 11:19:25;;;;;;;;;;;31.50;46.50;;;;;;5015279;28;19967;-96
2022/06/26 11:22:12;;;;;;;;;;;31.70;43.60;;;;;;5017380;28;19935;-96
2022/06/26 11:24:56;;;;;;;;;;;31.80;43.90;;;;;;5016819;28;19960;-96
2022/06/26 11:27:25;;;;;;;;;;;31.90;40.40;;;;;;5016190;28;19948;-96
2022/06/26 11:29:53;;;;;;;;;;;32.10;41.10;;;;;;4998919;28;19975;-96
2022/06/26 11:32:23;;;;;;;;;;;32.20;39.30;;;;;;5015639;28;19942;-96
2022/06/26 11:34:52;;;;;;;;;;;32.40;37.80;;;;;;5016158;28;19991;-96
2022/06/26 11:37:30;;;;;;;;;;;32.50;43.70;;;;;;5017066;28;19952;-96
2022/06/26 11:40:17;;;;;;;;;;;32.40;42.30;;;;;;5018195;28;19953;-97
2022/06/26 11:43:19;;;;;;;;;;;32.50;40.90;;;;;;5022170;28;20001;-96
2022/06/26 11:45:49;;;;;;;;;;;32.70;40.30;;;;;;5020563;28;19948;-96
2022/06/26 11:48:19;;;;;;;;;;;32.80;40.80;;;;;;5021217;28;19964;-96
2022/06/26 11:50:56;;;;;;;;;;;33.00;41.20;;;;;;5021242;28;19939;-96
2022/06/26 11:53:33;;;;;;;;;;;33.30;40.00;;;;;;5015452;28;19951;-96
2022/06/26 12:08:58;;;;;;;;;;;34.20;37.50;;;;;;5624732;23;19962;-96
2022/06/26 12:11:25;;;;;;;;;;;33.90;36.60;;;;;;5018737;28;19951;-96
2022/06/26 12:13:52;;;;;;;;;;;33.90;37.60;;;;;;5018542;28;19972;-96
2022/06/26 12:16:22;;;;;;;;;;;34.20;38.20;;;;;;5017951;28;19951;-96
2022/06/26 12:18:49;;;;;;;;;;;34.30;36.50;;;;;;5017152;28;20030;-96
2022/06/26 12:21:21;;;;;;;;;;;34.60;38.30;;;;;;5017280;28;20464;-96
2022/06/26 12:23:53;;;;;;;;;;;35.00;39.50;;;;;;5018241;28;19939;-96
2022/06/26 12:26:22;;;;;;;;;;;35.40;38.00;;;;;;5019435;28;19987;-96
2022/06/26 12:28:50;;;;;;;;;;;35.90;35.70;;;;;;5019390;28;19975;-96
2022/06/26 12:31:34;;;;;;;;;;;36.10;36.00;;;;;;5019956;28;19935;-96
2022/06/26 12:34:09;;;;;;;;;;;36.60;33.80;;;;;;5019562;28;19974;-96
2022/06/26 12:36:46;;;;;;;;;;;37.10;33.40;;;;;;5018288;28;19950;-96
2022/06/26 12:39:31;;;;;;;;;;;37.70;33.00;;;;;;5021239;28;19967;-96
2022/06/26 12:42:19;;;;;;;;;;;37.80;32.20;;;;;;5020379;28;19927;-96
2022/06/26 12:44:46;;;;;;;;;;;37.80;32.50;;;;;;5020687;28;19934;-96
2022/06/26 12:47:28;;;;;;;;;;;38.00;32.00;;;;;;5019685;28;19952;-96
2022/06/26 12:50:02;;;;;;;;;;;38.00;31.20;;;;;;5020000;28;19959;-97
2022/06/26 12:52:53;;;;;;;;;;;38.20;33.40;;;;;;5019018;28;19979;-96
2022/06/26 12:55:25;;;;;;;;;;;38.20;32.10;;;;;;5019983;28;20006;-96
2022/06/26 12:57:53;;;;;;;;;;;38.30;31.80;;;;;;5019743;28;19942;-96
2022/06/26 13:00:31;;;;;;;;;;;37.60;30.80;;;;;;5020262;28;19932;-96
2022/06/26 13:02:58;;;;;;;;;;;38.10;32.00;;;;;;5019585;28;19940;-96
2022/06/26 13:05:27;;;;;;;;;;;38.10;30.20;;;;;;5018345;28;19996;-96
2022/06/26 13:08:35;;;;;;;;;;;38.60;29.60;;;;;;5019072;28;19979;-96
2022/06/26 13:17:14;;;;;;;;;;;39.90;28.50;;;;;;5269422;23;20005;-96
2022/06/26 13:19:40;;;;;;;;;;;40.10;27.90;;;;;;5020448;28;19955;-96
2022/06/26 13:22:08;;;;;;;;;;;39.80;28.00;;;;;;5018597;28;19947;-96
2022/06/26 13:24:34;;;;;;;;;;;39.80;28.60;;;;;;5018226;28;19943;-96
2022/06/26 13:27:00;;;;;;;;;;;40.20;28.00;;;;;;5051491;28;20046;-96
2022/06/26 13:29:26;;;;;;;;;;;40.40;28.70;;;;;;5035981;28;19944;-96
2022/06/26 13:31:52;;;;;;;;;;;40.80;28.40;;;;;;5035458;28;19951;-96
2022/06/26 13:34:20;;;;;;;;;;;41.10;27.50;;;;;;5039052;28;19955;-96
2022/06/26 13:36:54;;;;;;;;;;;41.30;27.50;;;;;;5058772;28;19964;-96
2022/06/26 13:39:22;;;;;;;;;;;41.70;28.40;;;;;;5042038;28;19927;-96
2022/06/26 14:05:12;;;;;;;;;;;46.20;21.50;;;;;;5717057;23;20001;-96
2022/06/26 14:07:47;;;;;;;;;;;45.20;22.70;;;;;;5038503;28;19947;-96
2022/06/26 14:10:26;;;;;;;;;;;45.80;22.40;;;;;;4992800;28;20036;-96
2022/06/26 14:12:53;;;;;;;;;;;44.80;27.10;;;;;;5019232;28;19964;-96
2022/06/26 14:15:19;;;;;;;;;;;44.40;28.10;;;;;;5017241;28;19951;-96
2022/06/26 14:17:47;;;;;;;;;;;43.10;29.80;;;;;;5017222;28;19942;-96
2022/06/26 14:20:16;;;;;;;;;;;42.40;31.30;;;;;;5017091;28;19989;-96
2022/06/26 14:28:12;;;;;;;;;;;41.70;32.10;;;;;;5052488;28;19953;-96
2022/06/26 14:30:38;;;;;;;;;;;41.90;30.70;;;;;;5032165;28;20388;-96
2022/06/26 14:33:04;;;;;;;;;;;41.60;30.70;;;;;;5027183;28;20021;-96
2022/06/26 14:35:29;;;;;;;;;;;40.80;32.10;;;;;;5029683;28;19949;-96
2022/06/26 14:37:55;;;;;;;;;;;40.50;33.10;;;;;;5029452;28;20406;-96
2022/06/26 14:40:21;;;;;;;;;;;41.10;32.20;;;;;;5044744;28;19942;-96
2022/06/26 14:42:46;;;;;;;;;;;41.00;31.90;;;;;;5030647;28;19943;-96
2022/06/26 14:45:13;;;;;;;;;;;40.80;32.50;;;;;;5050363;28;19973;-96
2022/06/26 14:47:39;;;;;;;;;;;41.40;31.90;;;;;;5031573;28;19943;-96
2022/06/26 14:50:06;;;;;;;;;;;41.50;31.70;;;;;;5033260;28;19947;-96
2022/06/26 14:52:31;;;;;;;;;;;41.60;30.70;;;;;;5049884;28;19959;-96
2022/06/26 14:54:57;;;;;;;;;;;41.70;30.10;;;;;;5051241;28;19949;-96
2022/06/26 14:57:23;;;;;;;;;;;42.30;30.70;;;;;;5051333;28;19936;-96
2022/06/26 14:59:49;;;;;;;;;;;42.60;29.70;;;;;;5051520;28;19945;-96
2022/06/26 15:02:15;;;;;;;;;;;43.10;30.20;;;;;;5033199;28;20041;-96
2022/06/26 15:04:41;;;;;;;;;;;43.20;29.70;;;;;;5048825;28;20024;-96
2022/06/26 15:07:07;;;;;;;;;;;42.90;28.50;;;;;;5048681;28;20322;-96
2022/06/26 15:09:33;;;;;;;;;;;42.40;28.70;;;;;;5048048;28;19961;-96
2022/06/26 15:11:58;;;;;;;;;;;42.50;29.40;;;;;;5030710;28;19947;-96
2022/06/26 15:14:25;;;;;;;;;;;42.80;28.90;;;;;;5049230;28;19953;-96
2022/06/26 15:16:51;;;;;;;;;;;43.10;27.60;;;;;;5036960;28;19947;-96
2022/06/26 15:19:17;;;;;;;;;;;43.50;28.40;;;;;;5051835;28;19934;-96
2022/06/26 15:21:43;;;;;;;;;;;43.70;29.10;;;;;;5035082;28;20304;-96
2022/06/26 15:24:09;;;;;;;;;;;43.90;29.10;;;;;;5036063;28;19949;-96
2022/06/26 15:26:35;;;;;;;;;;;43.70;29.30;;;;;;5053345;28;20359;-96
2022/06/26 15:29:03;;;;;;;;;;;43.10;28.80;;;;;;5035189;28;19947;-96
2022/06/26 15:31:29;;;;;;;;;;;42.70;30.70;;;;;;5051812;28;19949;-96
2022/06/26 15:33:56;;;;;;;;;;;42.60;30.60;;;;;;5031689;28;19968;-96
2022/06/26 15:36:22;;;;;;;;;;;42.10;30.60;;;;;;5027383;28;19939;-96
2022/06/26 15:38:47;;;;;;;;;;;41.60;31.50;;;;;;5042806;28;20420;-96
2022/06/26 15:41:13;;;;;;;;;;;41.30;32.10;;;;;;5039045;28;19939;-96
2022/06/26 15:43:38;;;;;;;;;;;40.80;33.00;;;;;;5038445;28;20099;-96
2022/06/26 15:46:04;;;;;;;;;;;40.70;33.10;;;;;;5039123;28;20315;-96
2022/06/26 15:48:30;;;;;;;;;;;40.20;34.30;;;;;;5041828;28;19945;-96
2022/06/26 15:50:56;;;;;;;;;;;40.20;33.70;;;;;;5044875;28;19938;-96